Time;durP1;ratioP1;P1;durP2;ratioP2;P2;SDS_P1;SDS_P2;PMS_P1;PMS_P2;Temp;Humidity;BMP_temperature;BMP_pressure;BME280_temperature;BME280_humidity;BME280_pressure;Samples;Min_cycle;Max_cycle;Signal;HPM_P1;HPM_P2
2022/10/17 00:00:52;;;;;;;14.40;9.30;;;;;;;5.37;69.68;101124.62;106832;1302;22336;-59
2022/10/17 00:03:18;;;;;;;13.70;8.50;;;;;;;5.35;69.58;101126.70;106720;1287;139581;-59
2022/10/17 00:05:46;;;;;;;16.10;8.80;;;;;;;5.33;69.88;101129.23;106785;1295;22208;-58
2022/10/17 00:08:13;;;;;;;16.90;8.20;;;;;;;5.33;70.23;101135.43;106703;1300;137855;-58
2022/10/17 00:10:40;;;;;;;18.30;9.00;;;;;;;5.33;69.90;101137.84;106862;1285;22290;-58
2022/10/17 00:13:07;;;;;;;13.10;8.30;;;;;;;5.35;70.02;101136.23;106677;1302;137509;-59
2022/10/17 00:15:34;;;;;;;17.50;10.30;;;;;;;5.37;70.18;101136.79;106836;1303;23188;-58
2022/10/17 00:18:01;;;;;;;19.50;11.00;;;;;;;5.38;70.04;101140.36;106820;1294;22196;-58
2022/10/17 00:20:29;;;;;;;;;;;;;;;5.40;70.01;101139.56;106735;1303;140293;-58
2022/10/17 00:22:56;;;;;;;17.30;9.20;;;;;;;5.36;70.00;101130.59;106854;1300;22270;-58
2022/10/17 00:25:22;;;;;;;;;;;;;;;5.42;70.01;101139.35;106743;1303;138220;-59
2022/10/17 00:27:49;;;;;;;15.60;8.10;;;;;;;5.43;70.04;101137.15;106843;1303;22672;-59
2022/10/17 00:30:16;;;;;;;14.60;8.70;;;;;;;5.43;69.94;101137.11;106815;1295;22749;-59
2022/10/17 00:32:43;;;;;;;;;;;;;;;5.43;69.81;101138.56;106674;1302;139851;-58
2022/10/17 00:35:09;;;;;;;14.10;7.90;;;;;;;5.42;70.10;101136.67;106827;1300;22977;-58
2022/10/17 00:37:36;;;;;;;;;;;;;;;5.40;69.96;101139.93;106669;1302;138566;-59
2022/10/17 00:40:04;;;;;;;13.40;8.20;;;;;;;5.38;69.79;101135.73;106868;1293;22128;-58
2022/10/17 00:42:31;;;;;;;14.40;7.50;;;;;;;5.35;69.99;101133.52;106929;1300;22615;-59
2022/10/17 00:45:08;;;;;;;10.70;7.30;;;;;;;5.33;69.97;101136.64;106649;1299;137857;-59
2022/10/17 00:47:34;;;;;;;11.70;7.70;;;;;;;5.30;70.22;101138.77;106886;1300;22111;-59
2022/10/17 00:50:02;;;;;;;;;;;;;;;5.29;70.12;101132.38;106665;1300;138212;-59
2022/10/17 00:52:28;;;;;;;8.80;6.60;;;;;;;5.29;70.28;101132.12;106791;1300;22308;-59
2022/10/17 00:55:21;;;;;;;12.80;8.50;;;;;;;5.28;70.25;101130.44;106936;1299;23021;-59
2022/10/17 00:57:48;;;;;;;12.30;7.20;;;;;;;5.27;70.21;101126.15;106768;1303;22150;-58
2022/10/17 01:00:15;;;;;;;12.10;7.60;;;;;;;5.26;70.16;101125.04;106779;1302;22142;-59
2022/10/17 01:02:41;;;;;;;15.40;7.70;;;;;;;5.25;70.27;101126.44;106631;1300;138397;-59
2022/10/17 01:05:08;;;;;;;13.00;7.50;;;;;;;5.25;70.57;101129.89;106787;1294;22103;-59
2022/10/17 01:07:35;;;;;;;;;;;;;;;5.25;70.30;101127.86;106739;1300;138242;-58
2022/10/17 01:10:04;;;;;;;10.50;6.90;;;;;;;5.24;70.60;101126.52;106837;1295;23404;-58
2022/10/17 01:13:11;;;;;;;10.40;6.60;;;;;;;5.25;70.45;101124.31;106753;1300;22982;-59
2022/10/17 01:16:16;;;;;;;11.50;6.40;;;;;;;5.25;70.43;101128.42;106289;1308;22366;-59
2022/10/17 01:19:02;;;;;;;9.90;6.50;;;;;;;5.26;70.52;101123.77;106309;1299;23394;-59
2022/10/17 01:21:36;;;;;;;11.90;6.90;;;;;;;5.28;70.64;101124.59;106115;1307;138837;-59
2022/10/17 01:24:21;;;;;;;16.00;7.60;;;;;;;5.30;70.55;101118.93;106123;1309;22181;-58
2022/10/17 01:27:21;;;;;;;11.80;7.30;;;;;;;5.34;70.59;101116.73;106262;1297;137927;-58
2022/10/17 01:30:28;;;;;;;14.10;7.70;;;;;;;5.38;70.67;101118.03;105862;1314;22274;-58
2022/10/17 01:32:57;;;;;;;13.10;7.00;;;;;;;5.41;70.48;101119.16;104997;1320;137271;-58
2022/10/17 01:35:32;;;;;;;16.50;7.60;;;;;;;5.44;70.37;101127.67;105078;1320;23210;-59
2022/10/17 01:38:07;;;;;;;15.20;7.60;;;;;;;5.46;70.42;101125.73;105001;1320;137231;-58
2022/10/17 01:41:13;;;;;;;16.30;7.80;;;;;;;5.48;70.05;101122.38;104940;1321;23039;-59
2022/10/17 01:44:00;;;;;;;13.30;7.50;;;;;;;5.51;70.25;101120.99;104669;1318;139351;-59
2022/10/17 01:46:29;;;;;;;15.10;7.20;;;;;;;5.51;70.32;101112.64;104634;1326;22131;-59
2022/10/17 01:48:56;;;;;;;9.60;6.70;;;;;;;5.52;70.07;101110.58;104450;1321;23080;-59
2022/10/17 01:51:32;;;;;;;12.40;7.30;;;;;;;5.52;70.16;101107.09;104532;1326;137109;-59
2022/10/17 01:54:04;;;;;;;13.90;8.10;;;;;;;5.53;69.82;101110.42;104866;1322;22152;-59
2022/10/17 01:56:30;;;;;;;12.70;7.60;;;;;;;5.54;70.10;101105.11;104735;1322;138285;-59
2022/10/17 01:58:59;;;;;;;;;;;;;;;5.54;69.98;101100.89;104933;1320;23139;-59
2022/10/17 02:01:27;;;;;;;11.70;7.50;;;;;;;5.54;69.96;101102.88;104769;1320;125300;-60
2022/10/17 02:03:54;;;;;;;18.30;7.80;;;;;;;5.54;69.89;101102.20;104974;1320;23055;-59
2022/10/17 02:06:21;;;;;;;12.70;7.20;;;;;;;5.55;69.93;101102.94;105327;1315;22341;-59
2022/10/17 02:08:49;;;;;;;13.20;6.90;;;;;;;5.57;70.18;101099.98;105635;1308;138206;-59
2022/10/17 02:11:22;;;;;;;17.60;8.00;;;;;;;5.60;69.94;101099.48;106169;1310;22184;-59
2022/10/17 02:14:07;;;;;;;13.60;7.70;;;;;;;5.63;69.78;101101.92;105972;1308;138287;-59
2022/10/17 02:16:55;;;;;;;14.50;7.70;;;;;;;5.67;69.61;101105.63;106128;1308;23580;-59
2022/10/17 02:19:35;;;;;;;12.70;7.90;;;;;;;5.70;69.75;101110.37;106223;1308;139352;-59
2022/10/17 02:22:13;;;;;;;12.20;6.60;;;;;;;5.72;69.55;101114.48;106766;1302;23253;-60
2022/10/17 02:24:49;;;;;;;13.30;6.60;;;;;;;5.74;69.25;101120.48;106764;1300;22933;-59
2022/10/17 02:27:41;;;;;;;13.60;7.70;;;;;;;5.76;69.36;101118.42;106671;1302;137430;-60
2022/10/17 02:30:11;;;;;;;15.80;8.60;;;;;;;5.76;69.44;101112.10;106791;1300;22160;-59
2022/10/17 02:32:47;;;;;;;21.70;9.80;;;;;;;5.75;69.33;101110.46;106717;1300;139136;-59
2022/10/17 02:35:19;;;;;;;15.10;9.20;;;;;;;5.72;69.23;101112.32;106872;1300;22964;-59
2022/10/17 02:37:46;;;;;;;14.90;8.20;;;;;;;5.68;69.35;101109.67;106498;1293;137852;-58
2022/10/17 02:40:13;;;;;;;13.40;8.40;;;;;;;5.65;69.01;101107.71;106753;1295;23408;-59
2022/10/17 02:42:40;;;;;;;15.40;7.70;;;;;;;5.62;69.45;101102.16;106833;1293;22192;-59
2022/10/17 02:45:07;;;;;;;11.70;7.00;;;;;;;5.58;69.34;101100.08;106624;1300;137801;-58
2022/10/17 02:47:51;;;;;;;13.00;7.30;;;;;;;5.55;69.31;101101.43;106734;1303;22193;-58
2022/10/17 02:50:19;;;;;;;11.10;7.00;;;;;;;5.52;69.30;101102.13;106710;1294;138008;-58
2022/10/17 02:52:52;;;;;;;10.60;6.90;;;;;;;5.51;69.71;101104.23;106813;1303;22940;-58
2022/10/17 02:55:24;;;;;;;12.00;7.50;;;;;;;5.50;69.67;101103.39;106636;1303;138696;-58
2022/10/17 02:57:55;;;;;;;11.90;7.00;;;;;;;5.49;69.75;101101.30;106651;1295;23486;-58
2022/10/17 03:00:22;;;;;;;13.40;7.10;;;;;;;5.50;69.71;101098.94;106686;1297;22117;-58
2022/10/17 03:02:50;;;;;;;14.30;7.40;;;;;;;5.49;69.72;101103.38;106629;1302;138004;-58
2022/10/17 03:05:21;;;;;;;11.40;7.50;;;;;;;5.50;69.69;101112.41;106801;1303;22146;-58
2022/10/17 03:07:48;;;;;;;9.70;6.30;;;;;;;5.52;69.67;101117.94;106682;1302;138100;-58
2022/10/17 03:10:14;;;;;;;11.00;6.80;;;;;;;5.54;69.78;101116.06;106732;1303;22348;-59
2022/10/17 03:12:41;;;;;;;9.50;6.90;;;;;;;5.56;69.67;101122.20;106705;1298;22164;-59
2022/10/17 03:15:08;;;;;;;;;;;;;;;5.56;69.48;101130.73;106722;1303;137731;-59
2022/10/17 03:17:35;;;;;;;13.50;6.70;;;;;;;5.57;69.83;101138.23;106829;1300;22220;-59
2022/10/17 03:20:02;;;;;;;;;;;;;;;5.56;69.87;101143.92;106699;1300;138099;-59
2022/10/17 03:22:29;;;;;;;12.00;7.60;;;;;;;5.57;69.41;101155.91;106766;1295;22274;-59
2022/10/17 03:24:57;;;;;;;13.10;7.00;;;;;;;5.57;69.62;101161.36;106849;1303;22152;-58
2022/10/17 03:27:24;;;;;;;16.30;8.20;;;;;;;5.56;69.60;101165.39;106674;1300;138778;-59
2022/10/17 03:29:50;;;;;;;;;;;;;;;5.55;69.94;101164.95;106777;1303;24017;-59
2022/10/17 03:32:18;;;;;;;16.00;7.40;;;;;;;5.54;69.56;101167.09;106733;1302;123503;-59
2022/10/17 03:34:45;;;;;;;14.70;7.70;;;;;;;5.53;69.82;101165.27;106756;1302;22229;-59
2022/10/17 03:37:12;;;;;;;;;;;;;;;5.50;69.56;101169.48;106674;1300;137607;-59
2022/10/17 03:39:39;;;;;;;9.60;6.90;;;;;;;5.48;69.87;101171.12;106799;1300;22205;-58
2022/10/17 03:42:06;;;;;;;13.90;7.10;;;;;;;5.46;69.90;101177.80;106859;1300;22138;-59
2022/10/17 03:44:32;;;;;;;;;;;;;;;5.41;69.92;101174.56;106680;1300;137954;-59
2022/10/17 03:46:59;;;;;;;13.10;7.10;;;;;;;5.43;69.89;101183.10;106801;1300;23355;-59
2022/10/17 03:49:26;;;;;;;10.30;6.90;;;;;;;5.41;69.75;101194.45;106799;1277;138514;-59
2022/10/17 03:51:53;;;;;;;;;;;;;;;5.40;69.81;101194.94;106854;1302;23178;-59
2022/10/17 03:54:19;;;;;;;16.80;8.40;;;;;;;5.38;69.79;101193.73;106791;1300;22112;-59
2022/10/17 03:56:46;;;;;;;15.40;9.70;;;;;;;5.34;69.73;101185.23;106684;1302;138252;-58
2022/10/17 03:59:16;;;;;;;18.30;10.50;;;;;;;5.26;69.94;101189.39;106758;1297;22114;-59
2022/10/17 04:01:48;;;;;;;39.00;16.80;;;;;;;5.16;70.40;101194.73;106682;1287;137607;-59
2022/10/17 04:04:15;;;;;;;65.50;22.50;;;;;;;5.07;70.47;101198.46;106880;1300;22199;-59
2022/10/17 04:06:43;;;;;;;78.80;25.00;;;;;;;5.00;70.35;101196.31;106835;1302;22113;-58
2022/10/17 04:09:10;;;;;;;;;;;;;;;4.93;70.67;101195.23;106777;1285;138581;-58
2022/10/17 04:11:59;;;;;;;75.00;25.00;;;;;;;4.86;70.81;101194.39;106788;1300;22847;-59
2022/10/17 04:14:26;;;;;;;85.10;29.80;;;;;;;4.78;70.67;101192.10;106740;1303;138069;-59
2022/10/17 04:16:53;;;;;;;;;;;;;;;4.70;71.05;101191.89;106819;1301;23117;-58
2022/10/17 04:19:20;;;;;;;38.90;16.30;;;;;;;4.63;70.86;101195.11;106736;1300;123939;-59
2022/10/17 04:21:47;;;;;;;32.50;14.10;;;;;;;4.56;71.19;101192.45;106858;1300;23225;-59
2022/10/17 04:24:14;;;;;;;41.30;16.40;;;;;;;4.52;71.62;101190.28;106902;1300;22173;-59
2022/10/17 04:26:41;;;;;;;;;;;;;;;4.48;71.56;101180.95;106753;1300;139672;-58
2022/10/17 04:29:08;;;;;;;20.10;10.50;;;;;;;4.46;71.71;101174.00;106881;1300;22791;-59
2022/10/17 04:31:34;;;;;;;18.30;9.70;;;;;;;4.44;71.94;101167.77;106759;1295;138776;-59
2022/10/17 04:34:06;;;;;;;21.90;11.60;;;;;;;4.42;71.83;101162.95;106795;1300;22254;-58
2022/10/17 04:36:33;;;;;;;18.60;11.30;;;;;;;4.40;72.24;101155.23;106828;1300;22282;-59
2022/10/17 04:39:09;;;;;;;;;;;;;;;4.43;72.29;101158.54;106693;1300;139323;-58
2022/10/17 04:41:37;;;;;;;22.00;10.80;;;;;;;4.45;72.31;101169.79;106880;1300;22160;-59
2022/10/17 04:44:04;;;;;;;21.80;12.00;;;;;;;4.48;72.58;101169.48;106697;1300;138338;-59
2022/10/17 04:46:32;;;;;;;19.90;13.40;;;;;;;4.50;72.26;101164.38;106844;1300;22304;-59
2022/10/17 04:48:59;;;;;;;;;;;;;;;4.55;72.56;101163.11;106794;1300;22339;-59
2022/10/17 04:51:26;;;;;;;15.30;9.40;;;;;;;4.60;72.36;101166.83;106759;1300;124593;-59
2022/10/17 04:54:12;;;;;;;15.80;9.70;;;;;;;4.65;72.39;101166.77;106901;1300;22982;-59
2022/10/17 04:56:40;;;;;;;13.60;8.20;;;;;;;4.71;72.40;101171.30;106660;1300;137890;-59
2022/10/17 04:59:07;;;;;;;14.30;8.20;;;;;;;4.76;72.24;101171.23;106889;1300;23292;-59
2022/10/17 05:01:35;;;;;;;16.10;8.90;;;;;;;4.81;72.17;101167.88;106775;1300;137516;-59
2022/10/17 05:04:02;;;;;;;;;;;;;;;4.88;72.13;101172.20;106768;1302;23741;-58
2022/10/17 05:06:30;;;;;;;14.20;7.40;;;;;;;4.93;72.07;101180.55;106748;1302;22194;-59
2022/10/17 05:09:23;;;;;;;12.60;7.90;;;;;;;4.98;71.51;101179.36;106647;1302;138843;-59
2022/10/17 05:11:50;;;;;;;16.20;8.80;;;;;;;5.04;71.70;101183.08;106736;1303;22121;-59
2022/10/17 05:14:17;;;;;;;;;;;;;;;5.09;71.71;101182.58;106678;1300;137725;-59
2022/10/17 05:16:43;;;;;;;18.40;9.70;;;;;;;5.15;71.74;101183.52;106844;1300;22119;-59
2022/10/17 05:19:10;;;;;;;48.20;32.20;;;;;;;5.21;71.48;101179.95;106872;1302;22287;-63
2022/10/17 05:21:42;;;;;;;22.70;11.30;;;;;;;5.26;71.54;101183.45;106693;1303;22170;-61
2022/10/17 05:24:09;;;;;;;17.10;8.30;;;;;;;5.33;71.41;101184.54;106770;1302;22874;-61
2022/10/17 05:26:37;;;;;;;14.80;7.90;;;;;;;5.40;71.42;101186.30;106710;1300;138116;-60
2022/10/17 05:29:04;;;;;;;14.20;9.20;;;;;;;5.47;70.78;101187.79;106783;1302;22186;-61
2022/10/17 05:31:33;;;;;;;17.10;8.30;;;;;;;5.54;70.80;101194.50;106738;1299;138019;-60
2022/10/17 05:34:01;;;;;;;19.60;8.30;;;;;;;5.61;70.67;101193.08;106893;1300;22354;-61
2022/10/17 05:36:32;;;;;;;10.90;7.30;;;;;;;5.70;70.35;101194.04;106867;1294;22243;-61
2022/10/17 05:38:59;;;;;;;13.10;8.10;;;;;;;5.77;70.51;101193.56;106672;1302;138102;-61
2022/10/17 05:41:26;;;;;;;13.50;8.00;;;;;;;5.84;70.09;101188.80;106720;1300;22276;-59
2022/10/17 05:43:53;;;;;;;14.80;7.90;;;;;;;5.92;69.98;101187.65;106775;1285;137887;-58
2022/10/17 05:46:28;;;;;;;13.10;7.70;;;;;;;6.01;69.99;101189.12;106874;1296;22224;-59
2022/10/17 05:48:55;;;;;;;10.80;7.90;;;;;;;6.09;69.53;101188.54;106807;1300;22146;-59
2022/10/17 05:51:22;;;;;;;14.90;8.20;;;;;;;6.17;69.53;101192.61;106607;1302;137218;-58
2022/10/17 05:53:48;;;;;;;;;;;;;;;6.25;69.36;101202.08;106768;1302;22363;-59
2022/10/17 05:56:20;;;;;;;10.30;6.90;;;;;;;6.31;69.33;101204.88;106647;1302;124624;-59
2022/10/17 05:58:47;;;;;;;;;;;;;;;6.37;68.89;101199.98;106799;1303;22367;-59
2022/10/17 06:01:39;;;;;;;11.90;7.20;;;;;;;6.45;68.72;101207.54;106661;1302;124168;-59
2022/10/17 06:04:06;;;;;;;12.40;7.70;;;;;;;6.51;68.52;101206.90;106753;1302;22223;-59
2022/10/17 06:06:35;;;;;;;13.00;8.80;;;;;;;6.58;68.34;101202.98;106762;1302;22153;-59
2022/10/17 06:09:02;;;;;;;14.20;9.00;;;;;;;6.65;68.29;101203.14;106681;1303;138644;-59
2022/10/17 06:11:33;;;;;;;21.00;10.00;;;;;;;6.72;68.34;101205.77;106923;1299;22198;-59
2022/10/17 06:13:59;;;;;;;15.50;10.00;;;;;;;6.79;68.08;101204.52;106880;1300;137484;-60
2022/10/17 06:16:27;;;;;;;19.60;9.30;;;;;;;6.86;67.60;101204.00;106798;1302;22111;-59
2022/10/17 06:18:54;;;;;;;19.10;10.20;;;;;;;6.93;67.53;101206.94;106872;1303;22234;-59
2022/10/17 06:21:24;;;;;;;17.10;8.90;;;;;;;7.00;67.71;101203.30;106642;1303;138870;-59
2022/10/17 06:23:54;;;;;;;25.20;16.00;;;;;;;7.07;67.16;101204.38;106739;1302;23418;-58
2022/10/17 06:26:27;;;;;;;57.60;34.30;;;;;;;7.15;67.13;101210.61;106626;1300;137965;-58
2022/10/17 06:28:54;;;;;;;28.40;13.70;;;;;;;7.24;67.15;101210.40;106787;1300;22197;-58
2022/10/17 06:31:21;;;;;;;23.50;13.40;;;;;;;7.31;66.84;101212.33;106760;1300;22348;-58
2022/10/17 06:33:49;;;;;;;14.80;11.40;;;;;;;7.38;66.70;101219.88;106740;1300;139029;-58
2022/10/17 06:36:16;;;;;;;20.80;12.00;;;;;;;7.46;66.47;101223.09;106814;1300;22220;-58
2022/10/17 06:38:44;;;;;;;20.60;8.80;;;;;;;7.55;66.46;101224.69;106840;1300;139533;-57
2022/10/17 06:41:33;;;;;;;15.50;8.70;;;;;;;7.65;66.13;101230.16;106804;1285;23056;-58
2022/10/17 06:44:09;;;;;;;14.10;8.90;;;;;;;7.75;65.79;101231.75;106645;1300;138211;-58
2022/10/17 06:46:55;;;;;;;13.50;8.20;;;;;;;7.87;65.45;101230.61;106793;1288;22138;-59
2022/10/17 06:49:22;;;;;;;11.30;7.50;;;;;;;7.96;65.31;101229.20;106776;1302;22310;-58
2022/10/17 06:52:09;;;;;;;19.90;9.00;;;;;;;8.08;65.17;101229.68;106868;1277;22234;-58
2022/10/17 06:54:50;;;;;;;23.80;8.50;;;;;;;8.19;65.21;101229.43;106751;1303;22935;-57
2022/10/17 07:00:29;;;;;;;12.60;8.40;;;;;;;8.45;64.51;101228.41;99709;1333;545588;-58
2022/10/17 07:02:56;;;;;;;15.90;8.00;;;;;;;8.54;64.21;101232.30;100983;1308;137266;-59
2022/10/17 07:05:23;;;;;;;20.60;8.50;;;;;;;8.63;63.56;101229.11;100914;1316;24288;-58
2022/10/17 07:07:49;;;;;;;18.80;9.00;;;;;;;8.72;63.43;101222.07;101655;1310;137376;-58
2022/10/17 07:10:17;;;;;;;14.80;9.10;;;;;;;8.80;63.34;101220.94;105998;1300;22912;-59
2022/10/17 07:12:44;;;;;;;17.60;8.40;;;;;;;8.86;63.01;101212.20;106399;1293;22237;-57
2022/10/17 07:15:11;;;;;;;13.20;8.70;;;;;;;8.96;62.92;101215.73;104480;1305;2533941;-57
2022/10/17 07:17:38;;;;;;;;;;;;;;;9.06;62.86;101219.91;106479;1303;22364;-58
2022/10/17 07:20:05;;;;;;;18.50;7.30;;;;;;;9.14;62.55;101222.76;106176;1296;124677;-57
2022/10/17 07:22:33;;;;;;;12.50;7.60;;;;;;;9.23;62.38;101226.59;106502;1290;22339;-58
2022/10/17 07:25:00;;;;;;;11.50;7.60;;;;;;;9.32;62.13;101232.29;106468;1305;22215;-58
2022/10/17 07:27:36;;;;;;;12.30;6.90;;;;;;;9.42;61.78;101230.15;106364;1303;137779;-58
2022/10/17 07:30:03;;;;;;;8.40;6.50;;;;;;;9.51;61.37;101236.39;106495;1298;22107;-58
2022/10/17 07:32:53;;;;;;;14.50;8.60;;;;;;;9.61;61.16;101239.55;106257;1305;137493;-58
2022/10/17 07:35:20;;;;;;;17.20;8.80;;;;;;;9.69;61.27;101237.69;106505;1305;22326;-59
2022/10/17 07:37:47;;;;;;;12.00;7.60;;;;;;;9.78;61.18;101236.80;106356;1308;139333;-58
2022/10/17 07:40:16;;;;;;;25.30;8.50;;;;;;;9.84;60.57;101230.64;106500;1290;22141;-58
2022/10/17 07:42:43;;;;;;;;;;;;;;;9.92;60.04;101224.80;106455;1299;22336;-58
2022/10/17 07:45:11;;;;;;;15.80;9.70;;;;;;;10.05;59.12;101222.77;106343;1306;124031;-58
2022/10/17 07:47:37;;;;;;;;;;;;;;;10.12;59.00;101221.28;106496;1303;22327;-59
2022/10/17 07:50:07;;;;;;;14.80;6.30;;;;;;;10.21;58.59;101216.69;106382;1300;124498;-59
2022/10/17 07:52:33;;;;;;;14.70;5.80;;;;;;;10.29;58.21;101213.27;106568;1303;22225;-59
2022/10/17 07:55:00;;;;;;;;;;;;;;;10.38;57.80;101212.81;106587;1305;22414;-59
2022/10/17 07:57:27;;;;;;;11.30;5.70;;;;;;;10.47;57.59;101212.86;106419;1305;123534;-59
2022/10/17 07:59:53;;;;;;;;;;;;;;;10.56;57.25;101214.83;106455;1300;22507;-59
2022/10/17 08:02:22;;;;;;;14.70;6.20;;;;;;;10.62;57.25;101209.44;106455;1305;124056;-59
2022/10/17 08:04:50;;;;;;;23.50;10.70;;;;;;;10.69;56.92;101210.23;106550;1305;22938;-59
2022/10/17 08:07:18;;;;;;;18.50;8.20;;;;;;;10.77;57.00;101208.20;106536;1305;22181;-58
2022/10/17 08:09:50;;;;;;;11.20;7.50;;;;;;;10.86;56.50;101211.95;106391;1305;137146;-58
2022/10/17 08:12:17;;;;;;;17.40;8.00;;;;;;;10.95;56.09;101210.27;106511;1305;22139;-58
2022/10/17 08:14:44;;;;;;;23.30;12.10;;;;;;;11.05;56.03;101207.14;106401;1306;137929;-58
2022/10/17 08:17:11;;;;;;;;;;;;;;;11.14;55.38;101209.25;106546;1306;22440;-60
2022/10/17 08:19:39;;;;;;;21.70;12.10;;;;;;;11.22;55.27;101208.79;106431;1305;123990;-59
2022/10/17 08:22:06;;;;;;;17.10;9.10;;;;;;;11.30;55.26;101202.42;106530;1306;22058;-60
2022/10/17 08:24:32;;;;;;;13.60;8.00;;;;;;;11.37;54.97;101202.13;106480;1305;22229;-59
2022/10/17 08:26:59;;;;;;;13.20;7.30;;;;;;;11.43;54.85;101197.86;106486;1305;137267;-59
2022/10/17 08:29:26;;;;;;;29.90;8.90;;;;;;;11.50;54.57;101202.73;106550;1306;22156;-60
2022/10/17 08:31:53;;;;;;;;;;;;;;;11.57;54.22;101202.45;106440;1306;138013;-59
2022/10/17 08:34:27;;;;;;;16.80;8.90;;;;;;;11.63;53.88;101200.64;106553;1306;22137;-60
2022/10/17 08:36:56;;;;;;;19.70;9.70;;;;;;;11.68;53.65;101198.41;106731;1302;22130;-59
2022/10/17 08:39:22;;;;;;;;;;;;;;;11.73;53.80;101191.63;106686;1303;137087;-59
2022/10/17 08:42:37;;;;;;;40.50;20.20;;;;;;;11.79;54.10;101188.89;106842;1303;22141;-59
2022/10/17 08:45:16;;;;;;;12.70;6.20;;;;;;;11.88;53.71;101190.59;106349;1306;138855;-59
2022/10/17 08:47:47;;;;;;;7.40;5.50;;;;;;;11.94;53.32;101183.98;106521;1306;23024;-60
2022/10/17 08:50:26;;;;;;;12.40;6.30;;;;;;;12.00;52.85;101178.73;106382;1306;137902;-59
2022/10/17 08:52:56;;;;;;;19.50;6.60;;;;;;;12.05;53.00;101174.02;106467;1309;22199;-59
2022/10/17 08:55:38;;;;;;;8.00;5.10;;;;;;;12.11;52.82;101170.69;106521;1292;22342;-59
2022/10/17 08:58:20;;;;;;;;;;;;;;;12.16;52.71;101172.71;106474;1309;22438;-57
2022/10/17 09:01:12;;;;;;;11.20;5.00;;;;;;;12.21;52.41;101167.24;106343;1309;22362;-59
2022/10/17 09:04:05;;;;;;;21.10;7.30;;;;;;;12.27;52.80;101171.66;106373;1306;138156;-59
2022/10/17 09:06:35;;;;;;;11.40;6.00;;;;;;;12.33;52.42;101174.79;105867;1306;22165;-59
2022/10/17 09:09:11;;;;;;;16.60;7.50;;;;;;;12.39;52.56;101181.36;105713;1307;138418;-60
2022/10/17 09:12:19;;;;;;;32.30;7.30;;;;;;;12.45;52.20;101186.08;105971;1312;22174;-59
2022/10/17 09:14:52;;;;;;;19.50;8.40;;;;;;;12.51;51.70;101189.54;105090;1320;137444;-58
2022/10/17 09:17:33;;;;;;;14.00;5.80;;;;;;;12.56;51.53;101192.49;105479;1314;22265;-58
2022/10/17 09:20:10;;;;;;;11.70;5.20;;;;;;;12.61;51.43;101189.48;105383;1310;138338;-59
2022/10/17 09:22:41;;;;;;;15.10;5.50;;;;;;;12.66;51.42;101187.61;105578;1316;22331;-58
2022/10/17 09:25:12;;;;;;;8.00;4.70;;;;;;;12.71;51.53;101187.69;105604;1310;22914;-58
2022/10/17 09:27:41;;;;;;;13.70;5.90;;;;;;;12.77;51.02;101189.86;105238;1314;137197;-59
2022/10/17 09:30:16;;;;;;;9.30;5.10;;;;;;;12.82;50.77;101187.06;105612;1315;23343;-58
2022/10/17 09:33:13;;;;;;;7.50;4.90;;;;;;;12.87;51.11;101177.63;105388;1306;138910;-58
2022/10/17 09:35:59;;;;;;;11.90;4.60;;;;;;;12.94;50.72;101174.47;105581;1314;22226;-60
2022/10/17 09:38:34;;;;;;;12.40;4.80;;;;;;;12.96;50.28;101162.11;105409;1316;138409;-59
2022/10/17 09:41:00;;;;;;;35.00;19.20;;;;;;;13.00;50.35;101167.35;105544;1316;23362;-63
2022/10/17 09:43:27;;;;;;;11.60;7.20;;;;;;;13.04;50.35;101172.88;105751;1311;22117;-59
2022/10/17 09:46:08;;;;;;;;;;;;;;;13.10;50.08;101171.73;106306;1302;138315;-59
2022/10/17 09:48:38;;;;;;;13.00;5.80;;;;;;;13.17;50.05;101170.01;106841;1303;22179;-59
2022/10/17 09:51:06;;;;;;;25.40;12.10;;;;;;;13.22;49.97;101169.94;106733;1302;139770;-59
2022/10/17 09:53:54;;;;;;;20.10;10.60;;;;;;;13.28;50.06;101168.36;106573;1305;22204;-58
2022/10/17 09:56:21;;;;;;;12.00;5.80;;;;;;;13.32;50.02;101169.30;106504;1303;139335;-59
2022/10/17 09:58:51;;;;;;;23.20;9.90;;;;;;;13.38;49.86;101175.81;106878;1303;22313;-59
2022/10/17 10:01:27;;;;;;;17.50;8.20;;;;;;;13.44;50.04;101171.45;106747;1302;22297;-58
2022/10/17 10:04:12;;;;;;;17.80;6.70;;;;;;;13.49;49.57;101163.37;106730;1294;138568;-58
2022/10/17 10:06:39;;;;;;;8.80;4.80;;;;;;;13.54;49.09;101156.98;106820;1302;22209;-58
2022/10/17 10:09:19;;;;;;;12.40;4.60;;;;;;;13.59;48.61;101159.27;106720;1301;138350;-58
2022/10/17 10:11:53;;;;;;;10.30;4.10;;;;;;;13.64;48.66;101155.83;106706;1303;22142;-58
2022/10/17 10:14:34;;;;;;;11.60;4.60;;;;;;;13.68;48.52;101155.45;106610;1302;137720;-58
2022/10/17 10:17:05;;;;;;;10.30;5.00;;;;;;;13.74;48.13;101150.48;106732;1303;22616;-58
2022/10/17 10:19:34;;;;;;;11.30;5.80;;;;;;;13.79;47.95;101140.67;106780;1302;22275;-58
2022/10/17 10:22:03;;;;;;;7.70;5.00;;;;;;;13.83;47.95;101145.96;106790;1302;138429;-58
2022/10/17 10:24:30;;;;;;;8.40;4.70;;;;;;;13.87;47.42;101143.91;106760;1302;22267;-58
2022/10/17 10:27:06;;;;;;;9.80;5.00;;;;;;;13.91;47.28;101140.89;106689;1302;137412;-58
2022/10/17 10:29:34;;;;;;;24.00;13.10;;;;;;;13.96;47.52;101144.02;106593;1302;22124;-62
2022/10/17 10:32:11;;;;;;;9.30;5.80;;;;;;;14.01;47.39;101140.87;106661;1295;139316;-57
2022/10/17 10:34:44;;;;;;;7.50;4.20;;;;;;;14.04;46.71;101140.08;106637;1303;22157;-54
2022/10/17 10:37:17;;;;;;;9.90;4.60;;;;;;;14.08;46.94;101141.48;106569;1302;23190;-54
2022/10/17 10:39:55;;;;;;;9.20;4.50;;;;;;;14.11;46.80;101145.27;105383;1292;137567;-57
2022/10/17 10:42:36;;;;;;;10.90;5.00;;;;;;;14.12;46.76;101149.38;102181;1293;22487;-55
2022/10/17 10:45:21;;;;;;;7.60;4.80;;;;;;;14.16;46.68;101160.55;102158;1304;138448;-55
2022/10/17 10:48:24;;;;;;;8.60;4.60;;;;;;;14.20;46.24;101155.09;106762;1302;22210;-55
2022/10/17 10:51:04;;;;;;;9.00;4.10;;;;;;;14.22;45.93;101154.83;106703;1302;138498;-56
2022/10/17 10:53:48;;;;;;;10.10;4.90;;;;;;;14.26;45.67;101160.88;106777;1300;22875;-56
2022/10/17 10:56:20;;;;;;;11.20;4.60;;;;;;;14.30;45.91;101159.92;106454;1304;138680;-56
2022/10/17 10:58:53;;;;;;;8.60;4.70;;;;;;;14.32;45.68;101160.23;106464;1305;23410;-56
2022/10/17 11:01:28;;;;;;;10.90;4.80;;;;;;;14.33;45.77;101166.11;106533;1295;22298;-56
2022/10/17 11:04:33;;;;;;;32.30;21.20;;;;;;;14.34;45.57;101164.78;106417;1306;139410;-58
2022/10/17 11:07:03;;;;;;;54.80;36.80;;;;;;;14.36;45.30;101159.17;106576;1305;22170;-65
2022/10/17 11:09:42;;;;;;;181.00;115.30;;;;;;;14.39;44.92;101152.21;106378;1306;138434;-59
2022/10/17 11:12:13;;;;;;;17.50;12.00;;;;;;;14.40;44.53;101142.29;106612;1284;22943;-61
2022/10/17 11:15:06;;;;;;;9.90;5.70;;;;;;;14.42;44.79;101135.80;106400;1305;137955;-60
2022/10/17 11:17:47;;;;;;;7.50;5.00;;;;;;;14.45;44.43;101129.94;106449;1301;22159;-60
2022/10/17 11:20:18;;;;;;;9.80;5.00;;;;;;;14.49;44.52;101124.02;106344;1305;138005;-60
2022/10/17 11:22:47;;;;;;;9.20;5.10;;;;;;;14.54;44.31;101123.14;106513;1308;23412;-60
2022/10/17 11:25:32;;;;;;;9.30;4.80;;;;;;;14.56;43.83;101123.71;106563;1305;22278;-60
2022/10/17 11:27:59;;;;;;;15.40;5.30;;;;;;;14.61;43.97;101120.98;106577;1305;138586;-60
2022/10/17 11:30:55;;;;;;;13.70;4.80;;;;;;;14.65;44.10;101121.75;106776;1302;22151;-61
2022/10/17 11:33:43;;;;;;;11.50;4.90;;;;;;;14.68;44.35;101110.46;106623;1297;137848;-61
2022/10/17 11:36:10;;;;;;;11.90;5.00;;;;;;;14.69;44.30;101110.34;106714;1303;22172;-61
2022/10/17 11:38:42;;;;;;;11.00;5.10;;;;;;;14.72;44.52;101110.42;106613;1304;138069;-61
2022/10/17 11:41:16;;;;;;;11.00;4.90;;;;;;;14.75;44.21;101103.34;106799;1303;22242;-60
2022/10/17 11:44:03;;;;;;;91.40;60.40;;;;;;;14.78;44.33;101096.70;106726;1298;22235;-65
2022/10/17 11:46:29;;;;;;;10.90;8.50;;;;;;;14.81;44.24;101096.76;106753;1303;22716;-59